sensor_id;sensor_type;location;lat;lon;timestamp;P1;durP1;ratioP1;P2;durP2;ratioP2
60243;SDS011;46106;51.468;5.814;2023-04-30T00:02:06;15.88;;;9.63;;
60243;SDS011;46106;51.468;5.814;2023-04-30T00:04:35;19.13;;;9.95;;
60243;SDS011;46106;51.468;5.814;2023-04-30T00:07:01;20.17;;;8.68;;
60243;SDS011;46106;51.468;5.814;2023-04-30T00:09:26;21.17;;;9.70;;
60243;SDS011;46106;51.468;5.814;2023-04-30T00:11:51;18.23;;;8.93;;
60243;SDS011;46106;51.468;5.814;2023-04-30T00:14:17;18.73;;;10.23;;
60243;SDS011;46106;51.468;5.814;2023-04-30T00:16:42;15.90;;;9.98;;
60243;SDS011;46106;51.468;5.814;2023-04-30T00:19:08;17.85;;;10.38;;
60243;SDS011;46106;51.468;5.814;2023-04-30T00:21:34;16.70;;;9.13;;
60243;SDS011;46106;51.468;5.814;2023-04-30T00:23:59;15.25;;;9.63;;
60243;SDS011;46106;51.468;5.814;2023-04-30T00:26:25;20.35;;;10.30;;
60243;SDS011;46106;51.468;5.814;2023-04-30T00:28:50;22.52;;;10.60;;
60243;SDS011;46106;51.468;5.814;2023-04-30T00:31:16;18.25;;;10.50;;
60243;SDS011;46106;51.468;5.814;2023-04-30T00:33:41;17.38;;;10.73;;
60243;SDS011;46106;51.468;5.814;2023-04-30T00:36:10;22.45;;;11.25;;
60243;SDS011;46106;51.468;5.814;2023-04-30T00:38:35;20.55;;;11.60;;
60243;SDS011;46106;51.468;5.814;2023-04-30T00:41:01;21.13;;;10.70;;
60243;SDS011;46106;51.468;5.814;2023-04-30T00:43:26;15.93;;;9.77;;
60243;SDS011;46106;51.468;5.814;2023-04-30T00:45:52;21.08;;;10.73;;
60243;SDS011;46106;51.468;5.814;2023-04-30T00:48:17;16.13;;;9.68;;
60243;SDS011;46106;51.468;5.814;2023-04-30T00:50:43;21.20;;;11.23;;
60243;SDS011;46106;51.468;5.814;2023-04-30T00:53:09;19.63;;;10.95;;
60243;SDS011;46106;51.468;5.814;2023-04-30T00:55:36;19.02;;;10.57;;
60243;SDS011;46106;51.468;5.814;2023-04-30T00:58:02;17.13;;;11.02;;
60243;SDS011;46106;51.468;5.814;2023-04-30T01:00:27;19.33;;;10.98;;
60243;SDS011;46106;51.468;5.814;2023-04-30T01:02:54;19.05;;;10.88;;
60243;SDS011;46106;51.468;5.814;2023-04-30T01:05:20;25.45;;;11.02;;
60243;SDS011;46106;51.468;5.814;2023-04-30T01:07:47;20.63;;;11.57;;
60243;SDS011;46106;51.468;5.814;2023-04-30T01:10:13;19.63;;;11.32;;
60243;SDS011;46106;51.468;5.814;2023-04-30T01:12:43;20.98;;;11.43;;
60243;SDS011;46106;51.468;5.814;2023-04-30T01:20:38;20.13;;;11.43;;
60243;SDS011;46106;51.468;5.814;2023-04-30T01:26:06;19.55;;;11.32;;
60243;SDS011;46106;51.468;5.814;2023-04-30T01:28:37;21.73;;;12.02;;
60243;SDS011;46106;51.468;5.814;2023-04-30T01:31:10;24.65;;;12.57;;
60243;SDS011;46106;51.468;5.814;2023-04-30T01:33:39;19.30;;;11.63;;
60243;SDS011;46106;51.468;5.814;2023-04-30T01:36:12;20.60;;;12.05;;
60243;SDS011;46106;51.468;5.814;2023-04-30T01:39:09;24.88;;;13.00;;
60243;SDS011;46106;51.468;5.814;2023-04-30T01:42:39;26.42;;;13.30;;
60243;SDS011;46106;51.468;5.814;2023-04-30T01:44:48;21.00;;;11.52;;
60243;SDS011;46106;51.468;5.814;2023-04-30T01:47:30;24.52;;;12.30;;
60243;SDS011;46106;51.468;5.814;2023-04-30T01:53:01;22.27;;;12.80;;
60243;SDS011;46106;51.468;5.814;2023-04-30T01:55:43;19.17;;;12.35;;
60243;SDS011;46106;51.468;5.814;2023-04-30T01:58:21;21.83;;;12.23;;
60243;SDS011;46106;51.468;5.814;2023-04-30T02:00:49;19.08;;;11.77;;
60243;SDS011;46106;51.468;5.814;2023-04-30T02:03:15;20.70;;;12.15;;
60243;SDS011;46106;51.468;5.814;2023-04-30T02:05:41;26.00;;;12.45;;
60243;SDS011;46106;51.468;5.814;2023-04-30T02:08:06;24.90;;;12.48;;
60243;SDS011;46106;51.468;5.814;2023-04-30T02:10:32;25.90;;;11.43;;
60243;SDS011;46106;51.468;5.814;2023-04-30T02:12:57;23.25;;;12.13;;
60243;SDS011;46106;51.468;5.814;2023-04-30T02:15:23;20.50;;;12.30;;
60243;SDS011;46106;51.468;5.814;2023-04-30T02:17:48;25.02;;;12.48;;
60243;SDS011;46106;51.468;5.814;2023-04-30T02:20:14;24.20;;;13.77;;
60243;SDS011;46106;51.468;5.814;2023-04-30T02:22:39;25.33;;;13.07;;
60243;SDS011;46106;51.468;5.814;2023-04-30T02:25:05;24.88;;;13.18;;
60243;SDS011;46106;51.468;5.814;2023-04-30T02:27:31;24.50;;;13.52;;
60243;SDS011;46106;51.468;5.814;2023-04-30T02:29:57;22.80;;;13.77;;
60243;SDS011;46106;51.468;5.814;2023-04-30T02:32:23;25.23;;;13.02;;
60243;SDS011;46106;51.468;5.814;2023-04-30T02:34:49;26.13;;;14.13;;
60243;SDS011;46106;51.468;5.814;2023-04-30T02:37:14;23.23;;;13.45;;
60243;SDS011;46106;51.468;5.814;2023-04-30T02:39:40;28.13;;;14.80;;
60243;SDS011;46106;51.468;5.814;2023-04-30T02:42:07;38.92;;;15.10;;
60243;SDS011;46106;51.468;5.814;2023-04-30T02:44:35;26.63;;;15.02;;
60243;SDS011;46106;51.468;5.814;2023-04-30T02:47:00;28.63;;;13.98;;
60243;SDS011;46106;51.468;5.814;2023-04-30T02:49:26;20.38;;;13.25;;
60243;SDS011;46106;51.468;5.814;2023-04-30T02:51:52;24.50;;;14.57;;
60243;SDS011;46106;51.468;5.814;2023-04-30T02:54:18;25.48;;;13.60;;
60243;SDS011;46106;51.468;5.814;2023-04-30T02:56:44;28.92;;;13.55;;
60243;SDS011;46106;51.468;5.814;2023-04-30T02:59:09;22.38;;;13.85;;
60243;SDS011;46106;51.468;5.814;2023-04-30T03:01:35;25.05;;;14.15;;
60243;SDS011;46106;51.468;5.814;2023-04-30T03:04:00;26.60;;;13.02;;
60243;SDS011;46106;51.468;5.814;2023-04-30T03:06:28;23.15;;;13.82;;
60243;SDS011;46106;51.468;5.814;2023-04-30T03:08:53;35.45;;;14.50;;
60243;SDS011;46106;51.468;5.814;2023-04-30T03:11:19;32.85;;;13.73;;
60243;SDS011;46106;51.468;5.814;2023-04-30T03:13:46;23.17;;;14.32;;
60243;SDS011;46106;51.468;5.814;2023-04-30T03:16:15;24.58;;;14.80;;
60243;SDS011;46106;51.468;5.814;2023-04-30T03:18:41;25.80;;;13.98;;
60243;SDS011;46106;51.468;5.814;2023-04-30T03:21:10;24.52;;;14.40;;
60243;SDS011;46106;51.468;5.814;2023-04-30T03:23:35;24.92;;;14.02;;
60243;SDS011;46106;51.468;5.814;2023-04-30T03:26:01;27.88;;;14.02;;
60243;SDS011;46106;51.468;5.814;2023-04-30T03:28:26;25.95;;;13.88;;
60243;SDS011;46106;51.468;5.814;2023-04-30T03:30:52;26.17;;;13.05;;
60243;SDS011;46106;51.468;5.814;2023-04-30T03:33:17;24.65;;;14.48;;
60243;SDS011;46106;51.468;5.814;2023-04-30T03:35:43;22.75;;;13.85;;
60243;SDS011;46106;51.468;5.814;2023-04-30T03:38:08;23.83;;;13.20;;
60243;SDS011;46106;51.468;5.814;2023-04-30T03:40:34;23.90;;;13.48;;
60243;SDS011;46106;51.468;5.814;2023-04-30T03:42:59;27.42;;;14.85;;
60243;SDS011;46106;51.468;5.814;2023-04-30T03:45:28;25.95;;;14.52;;
60243;SDS011;46106;51.468;5.814;2023-04-30T03:47:54;24.15;;;14.48;;
60243;SDS011;46106;51.468;5.814;2023-04-30T03:50:19;28.35;;;15.10;;
60243;SDS011;46106;51.468;5.814;2023-04-30T03:52:45;29.85;;;15.13;;
60243;SDS011;46106;51.468;5.814;2023-04-30T03:55:11;23.75;;;14.40;;
60243;SDS011;46106;51.468;5.814;2023-04-30T03:57:37;25.15;;;14.45;;
60243;SDS011;46106;51.468;5.814;2023-04-30T04:00:04;24.65;;;14.93;;
60243;SDS011;46106;51.468;5.814;2023-04-30T04:02:34;34.17;;;15.60;;
60243;SDS011;46106;51.468;5.814;2023-04-30T04:05:01;23.08;;;14.27;;
60243;SDS011;46106;51.468;5.814;2023-04-30T04:07:27;27.90;;;14.35;;
60243;SDS011;46106;51.468;5.814;2023-04-30T04:09:52;24.70;;;13.82;;
60243;SDS011;46106;51.468;5.814;2023-04-30T04:12:18;26.05;;;14.77;;
60243;SDS011;46106;51.468;5.814;2023-04-30T04:14:43;30.42;;;15.50;;
60243;SDS011;46106;51.468;5.814;2023-04-30T04:17:09;27.20;;;15.95;;
60243;SDS011;46106;51.468;5.814;2023-04-30T04:19:35;30.17;;;16.25;;
60243;SDS011;46106;51.468;5.814;2023-04-30T04:22:00;29.20;;;16.85;;
60243;SDS011;46106;51.468;5.814;2023-04-30T04:24:26;28.60;;;16.80;;
60243;SDS011;46106;51.468;5.814;2023-04-30T04:26:52;36.03;;;16.30;;
60243;SDS011;46106;51.468;5.814;2023-04-30T04:29:17;29.17;;;16.83;;
60243;SDS011;46106;51.468;5.814;2023-04-30T04:31:43;30.88;;;17.38;;
60243;SDS011;46106;51.468;5.814;2023-04-30T04:34:09;34.28;;;17.10;;
60243;SDS011;46106;51.468;5.814;2023-04-30T04:36:34;27.80;;;16.65;;
60243;SDS011;46106;51.468;5.814;2023-04-30T04:39:00;30.80;;;17.85;;
60243;SDS011;46106;51.468;5.814;2023-04-30T04:41:26;34.60;;;16.70;;
60243;SDS011;46106;51.468;5.814;2023-04-30T04:43:52;30.10;;;17.52;;
60243;SDS011;46106;51.468;5.814;2023-04-30T04:46:18;36.53;;;17.73;;
60243;SDS011;46106;51.468;5.814;2023-04-30T04:48:44;35.35;;;18.08;;
60243;SDS011;46106;51.468;5.814;2023-04-30T04:51:10;28.08;;;16.95;;
60243;SDS011;46106;51.468;5.814;2023-04-30T04:53:36;28.25;;;16.42;;
60243;SDS011;46106;51.468;5.814;2023-04-30T04:56:03;25.85;;;16.45;;
60243;SDS011;46106;51.468;5.814;2023-04-30T04:58:29;28.85;;;16.30;;
60243;SDS011;46106;51.468;5.814;2023-04-30T05:00:54;31.95;;;16.02;;
60243;SDS011;46106;51.468;5.814;2023-04-30T05:03:21;33.42;;;17.10;;
60243;SDS011;46106;51.468;5.814;2023-04-30T05:05:46;25.40;;;15.57;;
60243;SDS011;46106;51.468;5.814;2023-04-30T05:08:12;33.88;;;17.27;;
60243;SDS011;46106;51.468;5.814;2023-04-30T05:10:37;25.25;;;16.55;;
60243;SDS011;46106;51.468;5.814;2023-04-30T05:13:03;30.05;;;17.52;;
60243;SDS011;46106;51.468;5.814;2023-04-30T05:15:28;29.00;;;16.77;;
60243;SDS011;46106;51.468;5.814;2023-04-30T05:17:55;29.75;;;16.85;;
60243;SDS011;46106;51.468;5.814;2023-04-30T05:20:20;29.80;;;17.30;;
60243;SDS011;46106;51.468;5.814;2023-04-30T05:22:46;35.08;;;18.77;;
60243;SDS011;46106;51.468;5.814;2023-04-30T05:25:11;36.63;;;17.65;;
60243;SDS011;46106;51.468;5.814;2023-04-30T05:27:37;29.48;;;16.27;;
60243;SDS011;46106;51.468;5.814;2023-04-30T05:30:02;28.25;;;16.83;;
60243;SDS011;46106;51.468;5.814;2023-04-30T05:32:28;25.02;;;16.45;;
60243;SDS011;46106;51.468;5.814;2023-04-30T05:34:53;29.13;;;16.17;;
60243;SDS011;46106;51.468;5.814;2023-04-30T05:37:19;25.80;;;15.98;;
60243;SDS011;46106;51.468;5.814;2023-04-30T05:39:46;34.10;;;16.13;;
60243;SDS011;46106;51.468;5.814;2023-04-30T05:42:12;21.08;;;14.43;;
60243;SDS011;46106;51.468;5.814;2023-04-30T05:44:38;25.65;;;14.48;;
60243;SDS011;46106;51.468;5.814;2023-04-30T05:47:05;31.17;;;14.43;;
60243;SDS011;46106;51.468;5.814;2023-04-30T05:49:30;24.85;;;14.18;;
60243;SDS011;46106;51.468;5.814;2023-04-30T05:51:56;23.02;;;13.77;;
60243;SDS011;46106;51.468;5.814;2023-04-30T05:54:21;25.63;;;13.70;;
60243;SDS011;46106;51.468;5.814;2023-04-30T05:56:47;18.33;;;12.85;;
60243;SDS011;46106;51.468;5.814;2023-04-30T05:59:12;19.80;;;13.13;;
60243;SDS011;46106;51.468;5.814;2023-04-30T06:01:38;18.60;;;12.95;;
60243;SDS011;46106;51.468;5.814;2023-04-30T06:04:03;22.38;;;12.40;;
60243;SDS011;46106;51.468;5.814;2023-04-30T06:06:29;17.45;;;12.02;;
60243;SDS011;46106;51.468;5.814;2023-04-30T06:08:56;24.38;;;12.27;;
60243;SDS011;46106;51.468;5.814;2023-04-30T06:11:21;22.48;;;12.23;;
60243;SDS011;46106;51.468;5.814;2023-04-30T06:13:52;19.67;;;11.63;;
60243;SDS011;46106;51.468;5.814;2023-04-30T06:16:18;21.33;;;10.82;;
60243;SDS011;46106;51.468;5.814;2023-04-30T06:18:43;21.90;;;10.70;;
60243;SDS011;46106;51.468;5.814;2023-04-30T06:21:10;20.33;;;11.68;;
60243;SDS011;46106;51.468;5.814;2023-04-30T06:23:36;15.10;;;10.18;;
60243;SDS011;46106;51.468;5.814;2023-04-30T06:26:02;17.73;;;10.73;;
60243;SDS011;46106;51.468;5.814;2023-04-30T06:28:28;18.35;;;10.77;;
60243;SDS011;46106;51.468;5.814;2023-04-30T06:30:53;17.40;;;11.48;;
60243;SDS011;46106;51.468;5.814;2023-04-30T06:33:19;20.10;;;10.55;;
60243;SDS011;46106;51.468;5.814;2023-04-30T06:35:45;23.75;;;10.95;;
60243;SDS011;46106;51.468;5.814;2023-04-30T06:38:11;23.10;;;11.25;;
60243;SDS011;46106;51.468;5.814;2023-04-30T06:40:39;16.30;;;10.13;;
60243;SDS011;46106;51.468;5.814;2023-04-30T06:43:04;18.48;;;10.15;;
60243;SDS011;46106;51.468;5.814;2023-04-30T06:45:30;14.48;;;9.82;;
60243;SDS011;46106;51.468;5.814;2023-04-30T06:47:55;23.45;;;11.23;;
60243;SDS011;46106;51.468;5.814;2023-04-30T06:50:21;15.70;;;9.50;;
60243;SDS011;46106;51.468;5.814;2023-04-30T06:52:47;19.98;;;9.77;;
60243;SDS011;46106;51.468;5.814;2023-04-30T06:55:12;18.63;;;9.60;;
60243;SDS011;46106;51.468;5.814;2023-04-30T06:57:38;18.33;;;9.07;;
60243;SDS011;46106;51.468;5.814;2023-04-30T07:00:10;16.60;;;8.60;;
60243;SDS011;46106;51.468;5.814;2023-04-30T07:02:36;12.57;;;8.48;;
60243;SDS011;46106;51.468;5.814;2023-04-30T07:05:01;15.10;;;8.88;;
60243;SDS011;46106;51.468;5.814;2023-04-30T07:07:27;13.65;;;8.68;;
60243;SDS011;46106;51.468;5.814;2023-04-30T07:09:53;16.15;;;8.60;;
60243;SDS011;46106;51.468;5.814;2023-04-30T07:12:19;17.90;;;9.18;;
60243;SDS011;46106;51.468;5.814;2023-04-30T07:14:45;13.68;;;9.43;;
60243;SDS011;46106;51.468;5.814;2023-04-30T07:17:10;16.40;;;9.00;;
60243;SDS011;46106;51.468;5.814;2023-04-30T07:19:39;15.93;;;9.18;;
60243;SDS011;46106;51.468;5.814;2023-04-30T07:22:04;12.57;;;8.43;;
60243;SDS011;46106;51.468;5.814;2023-04-30T07:24:30;13.82;;;9.38;;
60243;SDS011;46106;51.468;5.814;2023-04-30T07:26:55;15.48;;;8.98;;
60243;SDS011;46106;51.468;5.814;2023-04-30T07:29:21;16.42;;;8.80;;
60243;SDS011;46106;51.468;5.814;2023-04-30T07:31:46;16.20;;;9.65;;
60243;SDS011;46106;51.468;5.814;2023-04-30T07:34:12;13.20;;;8.80;;
60243;SDS011;46106;51.468;5.814;2023-04-30T07:36:37;15.25;;;9.48;;
60243;SDS011;46106;51.468;5.814;2023-04-30T07:39:03;13.98;;;8.25;;
60243;SDS011;46106;51.468;5.814;2023-04-30T07:41:29;14.27;;;8.88;;
60243;SDS011;46106;51.468;5.814;2023-04-30T07:43:55;13.60;;;8.98;;
60243;SDS011;46106;51.468;5.814;2023-04-30T07:46:21;15.02;;;9.65;;
60243;SDS011;46106;51.468;5.814;2023-04-30T07:48:49;15.10;;;9.75;;
60243;SDS011;46106;51.468;5.814;2023-04-30T07:51:14;15.95;;;9.85;;
60243;SDS011;46106;51.468;5.814;2023-04-30T07:53:40;14.93;;;9.38;;
60243;SDS011;46106;51.468;5.814;2023-04-30T07:56:06;13.85;;;8.52;;
60243;SDS011;46106;51.468;5.814;2023-04-30T07:58:32;14.82;;;8.98;;
60243;SDS011;46106;51.468;5.814;2023-04-30T08:00:58;15.15;;;9.10;;
60243;SDS011;46106;51.468;5.814;2023-04-30T08:03:23;17.35;;;9.20;;
60243;SDS011;46106;51.468;5.814;2023-04-30T08:05:49;15.93;;;9.63;;
60243;SDS011;46106;51.468;5.814;2023-04-30T08:08:14;12.27;;;8.82;;
60243;SDS011;46106;51.468;5.814;2023-04-30T08:10:40;13.93;;;9.23;;
60243;SDS011;46106;51.468;5.814;2023-04-30T08:13:06;12.63;;;9.00;;
60243;SDS011;46106;51.468;5.814;2023-04-30T08:15:34;19.08;;;8.82;;
60243;SDS011;46106;51.468;5.814;2023-04-30T08:18:01;15.82;;;9.30;;
60243;SDS011;46106;51.468;5.814;2023-04-30T08:20:26;15.95;;;9.38;;
60243;SDS011;46106;51.468;5.814;2023-04-30T08:22:52;12.05;;;8.77;;
60243;SDS011;46106;51.468;5.814;2023-04-30T08:25:17;15.18;;;9.27;;
60243;SDS011;46106;51.468;5.814;2023-04-30T08:27:43;16.40;;;10.40;;
60243;SDS011;46106;51.468;5.814;2023-04-30T08:30:08;13.23;;;8.75;;
60243;SDS011;46106;51.468;5.814;2023-04-30T08:32:34;14.32;;;8.73;;
60243;SDS011;46106;51.468;5.814;2023-04-30T08:35:00;14.30;;;8.77;;
60243;SDS011;46106;51.468;5.814;2023-04-30T08:37:29;14.88;;;8.98;;
60243;SDS011;46106;51.468;5.814;2023-04-30T08:39:55;15.10;;;9.32;;
60243;SDS011;46106;51.468;5.814;2023-04-30T08:42:21;14.35;;;9.07;;
60243;SDS011;46106;51.468;5.814;2023-04-30T08:44:49;14.23;;;8.45;;
60243;SDS011;46106;51.468;5.814;2023-04-30T08:47:15;15.20;;;9.32;;
60243;SDS011;46106;51.468;5.814;2023-04-30T08:49:42;17.27;;;8.52;;
60243;SDS011;46106;51.468;5.814;2023-04-30T08:52:08;12.10;;;8.32;;
60243;SDS011;46106;51.468;5.814;2023-04-30T08:54:34;17.75;;;8.63;;
60243;SDS011;46106;51.468;5.814;2023-04-30T08:57:00;14.70;;;8.98;;
60243;SDS011;46106;51.468;5.814;2023-04-30T08:59:26;18.15;;;9.20;;
60243;SDS011;46106;51.468;5.814;2023-04-30T09:01:52;11.25;;;7.50;;
60243;SDS011;46106;51.468;5.814;2023-04-30T09:04:17;17.77;;;9.02;;
60243;SDS011;46106;51.468;5.814;2023-04-30T09:06:43;10.88;;;8.48;;
60243;SDS011;46106;51.468;5.814;2023-04-30T09:09:10;13.75;;;9.20;;
60243;SDS011;46106;51.468;5.814;2023-04-30T09:11:37;14.82;;;8.77;;
60243;SDS011;46106;51.468;5.814;2023-04-30T09:14:02;12.05;;;8.35;;
60243;SDS011;46106;51.468;5.814;2023-04-30T09:16:28;11.90;;;6.70;;
60243;SDS011;46106;51.468;5.814;2023-04-30T09:19:31;13.47;;;8.60;;
60243;SDS011;46106;51.468;5.814;2023-04-30T09:21:56;14.95;;;7.57;;
60243;SDS011;46106;51.468;5.814;2023-04-30T09:24:22;12.13;;;7.68;;
60243;SDS011;46106;51.468;5.814;2023-04-30T09:26:49;14.52;;;8.18;;
60243;SDS011;46106;51.468;5.814;2023-04-30T09:29:15;12.90;;;7.15;;
60243;SDS011;46106;51.468;5.814;2023-04-30T09:31:42;12.65;;;7.38;;
60243;SDS011;46106;51.468;5.814;2023-04-30T09:34:11;13.30;;;8.45;;
60243;SDS011;46106;51.468;5.814;2023-04-30T09:36:50;10.25;;;7.60;;
60243;SDS011;46106;51.468;5.814;2023-04-30T09:39:18;10.52;;;7.15;;
60243;SDS011;46106;51.468;5.814;2023-04-30T09:41:44;9.85;;;7.13;;
60243;SDS011;46106;51.468;5.814;2023-04-30T09:44:26;17.60;;;7.50;;
60243;SDS011;46106;51.468;5.814;2023-04-30T09:46:53;10.45;;;7.00;;
60243;SDS011;46106;51.468;5.814;2023-04-30T09:49:20;8.98;;;6.32;;
60243;SDS011;46106;51.468;5.814;2023-04-30T09:52:04;9.20;;;6.53;;
60243;SDS011;46106;51.468;5.814;2023-04-30T09:54:30;12.57;;;6.18;;
60243;SDS011;46106;51.468;5.814;2023-04-30T09:56:57;8.13;;;5.20;;
60243;SDS011;46106;51.468;5.814;2023-04-30T09:59:27;7.03;;;4.60;;
60243;SDS011;46106;51.468;5.814;2023-04-30T10:02:02;11.23;;;6.05;;
60243;SDS011;46106;51.468;5.814;2023-04-30T10:04:35;7.55;;;5.78;;
60243;SDS011;46106;51.468;5.814;2023-04-30T10:07:04;9.70;;;6.50;;
60243;SDS011;46106;51.468;5.814;2023-04-30T10:12:45;7.38;;;5.63;;
60243;SDS011;46106;51.468;5.814;2023-04-30T10:15:25;10.02;;;4.97;;
60243;SDS011;46106;51.468;5.814;2023-04-30T10:18:04;8.40;;;5.00;;
60243;SDS011;46106;51.468;5.814;2023-04-30T10:20:33;10.10;;;5.13;;
60243;SDS011;46106;51.468;5.814;2023-04-30T10:23:01;8.32;;;4.93;;
60243;SDS011;46106;51.468;5.814;2023-04-30T10:25:26;8.05;;;5.40;;
60243;SDS011;46106;51.468;5.814;2023-04-30T10:27:53;14.50;;;4.88;;
60243;SDS011;46106;51.468;5.814;2023-04-30T10:30:19;8.60;;;5.00;;
60243;SDS011;46106;51.468;5.814;2023-04-30T10:35:32;4.65;;;3.92;;
60243;SDS011;46106;51.468;5.814;2023-04-30T10:38:21;4.40;;;3.53;;
60243;SDS011;46106;51.468;5.814;2023-04-30T10:40:55;5.65;;;4.13;;
60243;SDS011;46106;51.468;5.814;2023-04-30T10:43:31;4.65;;;4.10;;
60243;SDS011;46106;51.468;5.814;2023-04-30T10:45:59;7.30;;;4.22;;
60243;SDS011;46106;51.468;5.814;2023-04-30T10:48:24;7.10;;;4.63;;
60243;SDS011;46106;51.468;5.814;2023-04-30T10:50:55;6.47;;;4.63;;
60243;SDS011;46106;51.468;5.814;2023-04-30T10:53:24;5.43;;;4.32;;
60243;SDS011;46106;51.468;5.814;2023-04-30T10:58:22;4.78;;;3.47;;
60243;SDS011;46106;51.468;5.814;2023-04-30T11:01:34;6.32;;;3.75;;
60243;SDS011;46106;51.468;5.814;2023-04-30T11:03:41;5.07;;;4.57;;
60243;SDS011;46106;51.468;5.814;2023-04-30T11:06:27;6.53;;;3.63;;
60243;SDS011;46106;51.468;5.814;2023-04-30T11:09:33;6.20;;;4.00;;
60243;SDS011;46106;51.468;5.814;2023-04-30T11:12:08;5.20;;;4.32;;
60243;SDS011;46106;51.468;5.814;2023-04-30T11:14:38;4.75;;;4.35;;
60243;SDS011;46106;51.468;5.814;2023-04-30T11:17:06;8.48;;;4.93;;
60243;SDS011;46106;51.468;5.814;2023-04-30T11:19:31;8.75;;;5.10;;
60243;SDS011;46106;51.468;5.814;2023-04-30T11:27:40;7.25;;;5.07;;
60243;SDS011;46106;51.468;5.814;2023-04-30T11:32:36;6.20;;;5.22;;
60243;SDS011;46106;51.468;5.814;2023-04-30T11:35:03;6.47;;;5.40;;
60243;SDS011;46106;51.468;5.814;2023-04-30T11:37:31;6.78;;;5.40;;
60243;SDS011;46106;51.468;5.814;2023-04-30T11:40:08;5.95;;;5.35;;
60243;SDS011;46106;51.468;5.814;2023-04-30T11:42:35;6.18;;;5.35;;
60243;SDS011;46106;51.468;5.814;2023-04-30T11:47:50;7.93;;;4.53;;
60243;SDS011;46106;51.468;5.814;2023-04-30T11:50:17;5.22;;;4.43;;
60243;SDS011;46106;51.468;5.814;2023-04-30T11:52:57;6.57;;;5.05;;
60243;SDS011;46106;51.468;5.814;2023-04-30T11:55:26;6.68;;;5.05;;
60243;SDS011;46106;51.468;5.814;2023-04-30T11:57:53;9.85;;;4.70;;
60243;SDS011;46106;51.468;5.814;2023-04-30T12:00:27;6.28;;;4.75;;
60243;SDS011;46106;51.468;5.814;2023-04-30T12:02:54;7.38;;;4.22;;
60243;SDS011;46106;51.468;5.814;2023-04-30T12:05:21;6.68;;;3.40;;
60243;SDS011;46106;51.468;5.814;2023-04-30T12:08:09;5.57;;;3.35;;
60243;SDS011;46106;51.468;5.814;2023-04-30T12:10:34;5.75;;;3.30;;
60243;SDS011;46106;51.468;5.814;2023-04-30T12:13:00;3.50;;;2.90;;
60243;SDS011;46106;51.468;5.814;2023-04-30T12:15:26;4.00;;;3.58;;
60243;SDS011;46106;51.468;5.814;2023-04-30T12:17:56;6.00;;;4.15;;
60243;SDS011;46106;51.468;5.814;2023-04-30T12:20:24;4.22;;;3.83;;
60243;SDS011;46106;51.468;5.814;2023-04-30T12:22:51;4.03;;;3.53;;
60243;SDS011;46106;51.468;5.814;2023-04-30T12:25:18;4.82;;;3.20;;
60243;SDS011;46106;51.468;5.814;2023-04-30T12:27:45;3.75;;;3.35;;
60243;SDS011;46106;51.468;5.814;2023-04-30T12:30:17;5.90;;;3.88;;
60243;SDS011;46106;51.468;5.814;2023-04-30T12:32:48;4.15;;;3.15;;
60243;SDS011;46106;51.468;5.814;2023-04-30T12:35:15;3.38;;;3.08;;
60243;SDS011;46106;51.468;5.814;2023-04-30T12:37:47;2.88;;;2.38;;
60243;SDS011;46106;51.468;5.814;2023-04-30T12:40:17;3.17;;;2.22;;
60243;SDS011;46106;51.468;5.814;2023-04-30T12:42:44;3.10;;;2.28;;
60243;SDS011;46106;51.468;5.814;2023-04-30T12:45:11;4.68;;;2.65;;
60243;SDS011;46106;51.468;5.814;2023-04-30T12:47:41;3.05;;;2.50;;
60243;SDS011;46106;51.468;5.814;2023-04-30T12:50:08;3.75;;;2.45;;
60243;SDS011;46106;51.468;5.814;2023-04-30T12:52:39;4.47;;;2.80;;
60243;SDS011;46106;51.468;5.814;2023-04-30T12:57:40;5.28;;;3.20;;
60243;SDS011;46106;51.468;5.814;2023-04-30T13:00:06;3.58;;;3.20;;
60243;SDS011;46106;51.468;5.814;2023-04-30T13:02:32;3.72;;;2.85;;
60243;SDS011;46106;51.468;5.814;2023-04-30T13:04:57;5.28;;;3.15;;
60243;SDS011;46106;51.468;5.814;2023-04-30T13:07:23;5.93;;;3.50;;
60243;SDS011;46106;51.468;5.814;2023-04-30T13:09:49;5.90;;;3.88;;
60243;SDS011;46106;51.468;5.814;2023-04-30T13:12:14;3.28;;;2.70;;
60243;SDS011;46106;51.468;5.814;2023-04-30T13:14:40;4.22;;;2.80;;
60243;SDS011;46106;51.468;5.814;2023-04-30T13:17:05;4.03;;;2.80;;
60243;SDS011;46106;51.468;5.814;2023-04-30T13:19:33;3.30;;;2.70;;
60243;SDS011;46106;51.468;5.814;2023-04-30T13:21:59;3.97;;;2.72;;
60243;SDS011;46106;51.468;5.814;2023-04-30T13:24:25;3.67;;;2.97;;
60243;SDS011;46106;51.468;5.814;2023-04-30T13:26:50;3.05;;;2.47;;
60243;SDS011;46106;51.468;5.814;2023-04-30T13:29:16;7.90;;;2.55;;
60243;SDS011;46106;51.468;5.814;2023-04-30T13:31:44;3.78;;;2.05;;
60243;SDS011;46106;51.468;5.814;2023-04-30T13:34:10;2.65;;;2.30;;
60243;SDS011;46106;51.468;5.814;2023-04-30T13:36:35;2.60;;;2.40;;
60243;SDS011;46106;51.468;5.814;2023-04-30T13:39:01;2.92;;;2.10;;
60243;SDS011;46106;51.468;5.814;2023-04-30T13:41:26;3.30;;;2.03;;
60243;SDS011;46106;51.468;5.814;2023-04-30T13:43:52;2.97;;;2.00;;
60243;SDS011;46106;51.468;5.814;2023-04-30T13:46:17;2.70;;;2.08;;
60243;SDS011;46106;51.468;5.814;2023-04-30T13:48:43;3.97;;;2.33;;
60243;SDS011;46106;51.468;5.814;2023-04-30T13:51:12;4.45;;;2.58;;
60243;SDS011;46106;51.468;5.814;2023-04-30T13:53:37;3.50;;;2.80;;
60243;SDS011;46106;51.468;5.814;2023-04-30T13:56:04;4.20;;;2.33;;
60243;SDS011;46106;51.468;5.814;2023-04-30T13:58:31;2.47;;;2.17;;
60243;SDS011;46106;51.468;5.814;2023-04-30T14:00:56;3.45;;;2.30;;
60243;SDS011;46106;51.468;5.814;2023-04-30T14:03:22;3.60;;;2.00;;
60243;SDS011;46106;51.468;5.814;2023-04-30T14:05:47;3.42;;;1.92;;
60243;SDS011;46106;51.468;5.814;2023-04-30T14:08:13;3.78;;;1.88;;
60243;SDS011;46106;51.468;5.814;2023-04-30T14:10:38;2.03;;;1.83;;
60243;SDS011;46106;51.468;5.814;2023-04-30T14:13:04;2.38;;;1.92;;
60243;SDS011;46106;51.468;5.814;2023-04-30T14:15:30;2.88;;;1.60;;
60243;SDS011;46106;51.468;5.814;2023-04-30T14:17:56;3.08;;;1.95;;
60243;SDS011;46106;51.468;5.814;2023-04-30T14:20:22;5.25;;;1.90;;
60243;SDS011;46106;51.468;5.814;2023-04-30T14:22:48;4.75;;;2.10;;
60243;SDS011;46106;51.468;5.814;2023-04-30T14:25:14;3.85;;;2.03;;
60243;SDS011;46106;51.468;5.814;2023-04-30T14:27:40;3.58;;;1.90;;
60243;SDS011;46106;51.468;5.814;2023-04-30T14:30:06;2.78;;;1.98;;
60243;SDS011;46106;51.468;5.814;2023-04-30T14:32:32;3.25;;;1.90;;
60243;SDS011;46106;51.468;5.814;2023-04-30T14:34:57;2.90;;;2.00;;
60243;SDS011;46106;51.468;5.814;2023-04-30T14:37:23;2.95;;;2.30;;
60243;SDS011;46106;51.468;5.814;2023-04-30T14:39:49;6.95;;;2.20;;
60243;SDS011;46106;51.468;5.814;2023-04-30T14:42:14;5.78;;;2.80;;
60243;SDS011;46106;51.468;5.814;2023-04-30T14:44:40;4.55;;;1.70;;
60243;SDS011;46106;51.468;5.814;2023-04-30T14:47:08;4.05;;;2.00;;
60243;SDS011;46106;51.468;5.814;2023-04-30T14:49:34;2.15;;;1.95;;
60243;SDS011;46106;51.468;5.814;2023-04-30T14:51:59;4.55;;;1.90;;
60243;SDS011;46106;51.468;5.814;2023-04-30T14:54:25;5.90;;;2.13;;
60243;SDS011;46106;51.468;5.814;2023-04-30T14:56:51;2.38;;;1.70;;
60243;SDS011;46106;51.468;5.814;2023-04-30T14:59:16;3.25;;;1.77;;
60243;SDS011;46106;51.468;5.814;2023-04-30T15:01:42;2.50;;;1.85;;
60243;SDS011;46106;51.468;5.814;2023-04-30T15:04:07;2.40;;;1.80;;
60243;SDS011;46106;51.468;5.814;2023-04-30T15:06:33;6.45;;;2.38;;
60243;SDS011;46106;51.468;5.814;2023-04-30T15:08:59;3.33;;;1.77;;